Aklavik, Northwest Territories

2:20 AM MDT on June 30, 2015 (GMT -0600)
Zubko | | Change Station
CLOSE
Current Station
Airport
Location: Inuvik,
Elevation: 223 ft
Nearby Weather Stations

Elev 223 ft 68.31 °N, 133.50 °W | Updated 20 minutes ago

Mostly Cloudy
Mostly Cloudy
57 °F
Feels Like 57 °F
N
6
Wind Variable Wind from ENE

Today is forecast to be nearly the same temperature as yesterday.

Today
High -- | Low -- °F
--% Chance of Precip.
Yesterday
High -- | Low -- °F
Precip. -- in
5:00 PM 5:00 PM
Waxing Gibbous, 96% visible
Pressure 29.90 in
Visibility 15.0 miles
Clouds Scattered Clouds 7600 ft
Mostly Cloudy 26000 ft
Dew Point 52 °F
Humidity 82%
Rainfall 0.00 in
Snow Depth Not available.
UV 0 out of 12
Pollen Not available.
Air Quality Not available.
Flu Activity Not available.
METAR CYEV 300800Z 07005KT 15SM SCT076 BKN260 14/11 A2989 RMK AC3CI2 FU ALFT SLP125

More Conditions Fewer Conditions

Pressure 29.90 in
Visibility 15.0 miles
Clouds Scattered Clouds 7600 ft
Mostly Cloudy 26000 ft
Dew Point 52 °F
Humidity 82%
Rainfall 0.00 in
Snow Depth Not available.
UV 0 out of 12
Pollen Not available.
Air Quality Not available.
Flu Activity Not available.
METAR CYEV 300800Z 07005KT 15SM SCT076 BKN260 14/11 A2989 RMK AC3CI2 FU ALFT SLP125

More Conditions Fewer Conditions

10-Day Weather Forecast

×

Almanac

Astronomy

Jun. 30, 2015 Rise Set
Actual Time
Civil Twilight
Nautical Twilight
Astronomical Twilight
Moon
Length of Visible Light
Length of Day
Tomorrow will be .
, % of the Moon is Illuminated

Today's Extremes

Country Highs Country Lows

Community

WunderPhotos

Upload Photos

1,833,976 photos uploaded!

WunderBlogs® & News

Nearby

Air Quality

  Air Quality AQ Index Pollutant
Not available.

Snow Depth

Station Depth Elevation

Earthquake Activity

City Distance Mag. Time & Date
Minimum magnitude displayed is 2.5.

Coastal Water Temperatures

Place Temperature

Stations

Nearby Weather Stations

Station Location Temp. Windchill Dew Point Humidity Wind Precip. Elev Updated Type